createdAt,value
2023-05-19T00:01:02.842Z,19.30
2023-05-19T00:03:33.795Z,19.30
2023-05-19T00:06:03.759Z,19.30
2023-05-19T00:08:32.630Z,19.30
2023-05-19T00:11:01.869Z,19.30
2023-05-19T00:13:32.398Z,19.30
2023-05-19T00:16:01.173Z,19.30
2023-05-19T00:18:30.469Z,19.30
2023-05-19T00:20:58.477Z,19.20
2023-05-19T00:23:26.533Z,19.20
2023-05-19T00:25:54.543Z,19.20
2023-05-19T00:28:22.558Z,19.20
2023-05-19T00:30:52.184Z,19.20
2023-05-19T00:33:20.263Z,19.20
2023-05-19T00:35:48.556Z,19.20
2023-05-19T00:38:16.620Z,19.20
2023-05-19T00:40:44.882Z,19.20
2023-05-19T00:43:13.469Z,19.10
2023-05-19T00:45:42.063Z,19.10
2023-05-19T00:48:11.421Z,19.10
2023-05-19T00:50:39.625Z,19.10
2023-05-19T00:53:08.321Z,19.10
2023-05-19T00:55:40.436Z,19.10
2023-05-19T00:58:11.819Z,19.10
2023-05-19T01:00:40.329Z,19.10
2023-05-19T01:03:11.353Z,19.00
2023-05-19T01:05:44.612Z,19.00
2023-05-19T01:08:13.209Z,19.00
2023-05-19T01:10:41.321Z,19.00
2023-05-19T01:13:09.949Z,19.00
2023-05-19T01:15:55.938Z,19.00
2023-05-19T01:18:35.639Z,19.00
2023-05-19T01:21:37.406Z,19.00
2023-05-19T01:24:25.463Z,19.00
2023-05-19T01:27:19.601Z,19.00
2023-05-19T01:30:23.235Z,19.00
2023-05-19T01:32:54.423Z,19.00
2023-05-19T01:35:27.004Z,18.90
2023-05-19T01:38:00.441Z,18.90
2023-05-19T01:40:30.835Z,18.90
2023-05-19T01:43:01.888Z,18.90
2023-05-19T01:45:33.792Z,18.90
2023-05-19T01:48:05.124Z,18.90
2023-05-19T01:50:34.681Z,18.90
2023-05-19T01:53:03.206Z,18.90
2023-05-19T01:55:31.253Z,18.90
2023-05-19T01:58:11.266Z,18.90
2023-05-19T02:00:52.439Z,18.90
2023-05-19T02:03:41.158Z,18.80
2023-05-19T02:06:21.545Z,18.90
2023-05-19T02:08:59.025Z,18.90
2023-05-19T02:11:38.695Z,18.80
2023-05-19T02:14:15.202Z,18.80
2023-05-19T02:16:48.941Z,18.80
2023-05-19T02:19:28.410Z,18.80
2023-05-19T02:21:57.521Z,18.80
2023-05-19T02:24:26.993Z,18.80
2023-05-19T02:26:55.529Z,18.80
2023-05-19T02:29:23.605Z,18.80
2023-05-19T02:31:53.154Z,18.80
2023-05-19T02:34:21.266Z,18.80
2023-05-19T02:36:50.618Z,18.80
2023-05-19T02:39:18.645Z,18.80
2023-05-19T02:41:46.782Z,18.80
2023-05-19T02:44:14.835Z,18.80
2023-05-19T02:46:43.049Z,18.80
2023-05-19T02:49:12.461Z,18.80
2023-05-19T02:51:40.718Z,18.80
2023-05-19T02:54:08.884Z,18.80
2023-05-19T02:56:36.916Z,18.80
2023-05-19T02:59:05.897Z,18.80
2023-05-19T03:01:33.981Z,18.80
2023-05-19T03:04:02.318Z,18.80
2023-05-19T03:06:32.730Z,18.80
2023-05-19T03:09:00.749Z,18.80
2023-05-19T03:11:29.536Z,18.80
2023-05-19T03:13:57.670Z,18.80
2023-05-19T03:16:26.618Z,18.80
2023-05-19T03:18:55.497Z,18.80
2023-05-19T03:21:23.608Z,18.80
2023-05-19T03:23:53.271Z,18.80
2023-05-19T03:26:22.982Z,18.80
2023-05-19T03:28:51.044Z,18.80
2023-05-19T03:31:19.357Z,18.80
2023-05-19T03:33:47.784Z,18.80
2023-05-19T03:36:15.988Z,18.80
2023-05-19T03:38:44.217Z,18.80
2023-05-19T03:41:13.580Z,18.70
2023-05-19T03:43:41.636Z,18.70
2023-05-19T03:46:11.202Z,18.70
2023-05-19T03:48:48.039Z,18.70
2023-05-19T03:51:34.793Z,18.70
2023-05-19T03:54:10.355Z,18.70
2023-05-19T03:56:41.956Z,18.70
2023-05-19T03:59:10.843Z,18.70
2023-05-19T04:01:38.930Z,18.70
2023-05-19T04:04:07.404Z,18.70
2023-05-19T04:06:36.124Z,18.70
2023-05-19T04:09:13.018Z,18.70
2023-05-19T04:11:43.290Z,18.70
2023-05-19T04:14:11.370Z,18.70
2023-05-19T04:16:39.552Z,18.70
2023-05-19T04:19:07.693Z,18.70
2023-05-19T04:21:36.537Z,18.70
2023-05-19T04:24:06.623Z,18.70
2023-05-19T04:26:37.961Z,18.70
2023-05-19T04:29:07.398Z,18.70
2023-05-19T04:31:36.030Z,18.70
2023-05-19T04:34:07.759Z,18.70
2023-05-19T04:36:36.585Z,18.70
2023-05-19T04:39:09.684Z,18.70
2023-05-19T04:41:40.356Z,18.70
2023-05-19T04:44:09.934Z,18.70
2023-05-19T04:46:38.874Z,18.70
2023-05-19T04:49:07.747Z,18.70
2023-05-19T04:51:35.959Z,18.70
2023-05-19T04:54:04.613Z,18.70
2023-05-19T04:56:32.697Z,18.70
2023-05-19T04:59:00.842Z,18.70
2023-05-19T05:01:31.210Z,18.70
2023-05-19T05:04:02.435Z,18.70
2023-05-19T05:06:31.572Z,18.70
2023-05-19T05:09:00.603Z,18.70
2023-05-19T05:11:30.023Z,18.70
2023-05-19T05:13:58.932Z,18.70
2023-05-19T05:16:33.288Z,18.70
2023-05-19T05:19:02.788Z,18.80
2023-05-19T05:21:32.914Z,18.80
2023-05-19T05:24:01.690Z,18.80
2023-05-19T05:26:35.364Z,18.80
2023-05-19T05:29:03.697Z,18.80
2023-05-19T05:31:33.482Z,18.80
2023-05-19T05:34:01.594Z,18.80
2023-05-19T05:36:34.853Z,18.80
2023-05-19T05:39:04.220Z,18.80
2023-05-19T05:41:35.265Z,18.80
2023-05-19T05:44:08.781Z,18.80
2023-05-19T05:46:39.532Z,18.80
2023-05-19T05:49:08.469Z,18.90
2023-05-19T05:51:37.609Z,18.90
2023-05-19T05:54:08.375Z,18.90
2023-05-19T05:56:41.128Z,18.90
2023-05-19T05:59:10.267Z,18.90
2023-05-19T06:01:40.003Z,18.90
2023-05-19T06:04:10.913Z,18.90
2023-05-19T06:06:39.040Z,19.00
2023-05-19T06:09:07.573Z,19.00
2023-05-19T06:11:36.748Z,19.00
2023-05-19T06:14:06.043Z,19.00
2023-05-19T06:16:50.943Z,19.00
2023-05-19T06:19:19.905Z,19.10
2023-05-19T06:21:48.119Z,19.10
2023-05-19T06:24:16.717Z,19.10
2023-05-19T06:26:44.943Z,19.10
2023-05-19T06:29:13.497Z,19.20
2023-05-19T06:31:41.781Z,19.20
2023-05-19T06:34:17.489Z,19.20
2023-05-19T06:36:50.334Z,19.20
2023-05-19T06:39:20.615Z,19.30
2023-05-19T06:41:48.752Z,19.30
2023-05-19T06:44:36.759Z,19.30
2023-05-19T06:47:05.561Z,19.30
2023-05-19T06:49:35.027Z,19.40
2023-05-19T06:52:03.057Z,19.40
2023-05-19T06:54:31.146Z,19.40
2023-05-19T06:56:59.200Z,19.50
2023-05-19T06:59:27.258Z,19.50
2023-05-19T07:01:55.425Z,19.50
2023-05-19T07:04:23.577Z,19.50
2023-05-19T07:06:53.420Z,19.60
2023-05-19T07:09:21.542Z,19.60
2023-05-19T07:11:50.112Z,19.60
2023-05-19T07:14:18.233Z,19.70
2023-05-19T07:16:46.510Z,19.70
2023-05-19T07:19:15.099Z,19.70
2023-05-19T07:21:43.471Z,19.70
2023-05-19T07:24:12.939Z,19.80
2023-05-19T07:26:41.469Z,19.80
2023-05-19T07:29:09.645Z,19.80
2023-05-19T07:31:37.913Z,19.90
2023-05-19T07:34:06.257Z,19.90
2023-05-19T07:36:34.890Z,19.90
2023-05-19T07:39:03.392Z,19.90
2023-05-19T07:41:34.311Z,20.00
2023-05-19T07:44:07.388Z,20.00
2023-05-19T07:46:35.880Z,20.00
2023-05-19T07:49:04.194Z,20.10
2023-05-19T07:51:32.571Z,20.10
2023-05-19T07:54:01.054Z,20.10
2023-05-19T07:56:29.471Z,20.10
2023-05-19T07:58:58.825Z,20.20
2023-05-19T08:01:26.928Z,20.20
2023-05-19T08:03:55.102Z,20.30
2023-05-19T08:06:23.225Z,20.30
2023-05-19T08:08:51.884Z,20.30
2023-05-19T08:11:19.970Z,20.40
2023-05-19T08:13:49.304Z,20.40
2023-05-19T08:16:18.810Z,20.40
2023-05-19T08:18:46.993Z,20.50
2023-05-19T08:21:15.155Z,20.50
2023-05-19T08:23:43.402Z,20.60
2023-05-19T08:26:11.476Z,20.60
2023-05-19T08:28:39.516Z,20.60
2023-05-19T08:31:07.647Z,20.70
2023-05-19T08:33:37.099Z,20.80
2023-05-19T08:36:06.476Z,20.80
2023-05-19T08:38:34.607Z,20.90
2023-05-19T08:41:03.014Z,21.00
2023-05-19T08:43:31.170Z,21.20
2023-05-19T08:46:01.211Z,21.30
2023-05-19T08:48:31.554Z,21.50
2023-05-19T08:51:12.018Z,21.70
2023-05-19T08:53:45.221Z,21.80
2023-05-19T08:56:18.519Z,21.90
2023-05-19T08:58:47.825Z,22.10
2023-05-19T09:01:17.378Z,22.20
2023-05-19T09:03:46.801Z,22.30
2023-05-19T09:06:17.028Z,22.40
2023-05-19T09:08:46.925Z,22.50
2023-05-19T09:11:15.477Z,22.50
2023-05-19T09:13:43.667Z,22.70
2023-05-19T09:16:12.806Z,22.70
2023-05-19T09:18:41.516Z,22.80
2023-05-19T09:21:11.177Z,23.00
2023-05-19T09:23:40.788Z,23.00
2023-05-19T09:26:08.924Z,23.10
2023-05-19T09:28:38.287Z,23.10
2023-05-19T09:31:08.505Z,23.10
2023-05-19T09:33:39.227Z,23.10
2023-05-19T09:36:09.126Z,23.10
2023-05-19T09:38:38.607Z,23.10
2023-05-19T09:41:09.512Z,23.00
2023-05-19T09:43:37.688Z,23.00
2023-05-19T09:46:07.578Z,22.90
2023-05-19T09:48:36.678Z,22.80
2023-05-19T09:51:07.510Z,22.80
2023-05-19T09:53:35.995Z,22.70
2023-05-19T09:56:04.757Z,22.70
2023-05-19T09:58:36.204Z,22.70
2023-05-19T10:01:05.357Z,22.60
2023-05-19T10:03:34.728Z,22.60
2023-05-19T10:06:05.117Z,22.60
2023-05-19T10:08:35.795Z,22.70
2023-05-19T10:11:04.854Z,22.70
2023-05-19T10:13:37.525Z,22.70
2023-05-19T10:16:07.080Z,22.80
2023-05-19T10:18:37.515Z,22.90
2023-05-19T10:21:09.092Z,23.00
2023-05-19T10:23:37.236Z,23.30
2023-05-19T10:26:07.256Z,23.50
2023-05-19T10:28:40.943Z,23.60
2023-05-19T10:31:15.909Z,23.80
2023-05-19T10:34:03.063Z,23.80
2023-05-19T10:36:46.550Z,23.90
2023-05-19T10:39:22.136Z,24.00
2023-05-19T10:42:02.251Z,23.90
2023-05-19T10:44:50.814Z,23.90
2023-05-19T10:47:24.999Z,23.80
2023-05-19T10:49:53.796Z,23.80
2023-05-19T10:52:23.303Z,23.70
2023-05-19T10:54:54.234Z,23.60
2023-05-19T10:57:28.425Z,23.60
2023-05-19T11:00:00.574Z,23.50
2023-05-19T11:02:44.061Z,23.50
2023-05-19T11:05:16.531Z,23.40
2023-05-19T11:07:45.893Z,23.40
2023-05-19T11:10:14.447Z,23.30
2023-05-19T11:12:44.254Z,23.30
2023-05-19T11:15:16.245Z,23.20
2023-05-19T11:17:49.324Z,23.20
2023-05-19T11:20:25.609Z,23.10
2023-05-19T11:23:07.688Z,23.10
2023-05-19T11:25:47.811Z,23.10
2023-05-19T11:28:19.452Z,23.00
2023-05-19T11:30:50.729Z,23.00
2023-05-19T11:33:20.744Z,23.00
2023-05-19T11:35:50.344Z,23.00
2023-05-19T11:38:19.935Z,22.90
2023-05-19T11:40:49.718Z,22.90
2023-05-19T11:43:17.704Z,22.90
2023-05-19T11:45:46.906Z,22.80
2023-05-19T11:48:17.291Z,22.80
2023-05-19T11:50:46.775Z,22.80
2023-05-19T11:53:16.352Z,22.70
2023-05-19T11:55:47.225Z,22.70
2023-05-19T11:58:16.159Z,22.70
2023-05-19T12:00:47.408Z,22.70
2023-05-19T12:03:22.382Z,22.60
2023-05-19T12:05:50.978Z,22.60
2023-05-19T12:08:19.423Z,22.60
2023-05-19T12:10:50.769Z,22.60
2023-05-19T12:13:18.939Z,22.60
2023-05-19T12:15:47.105Z,22.50
2023-05-19T12:18:16.641Z,22.50
2023-05-19T12:20:44.823Z,22.50
2023-05-19T12:23:13.661Z,22.50
2023-05-19T12:25:41.986Z,22.50
2023-05-19T12:28:10.500Z,22.50
2023-05-19T12:30:38.844Z,22.50
2023-05-19T12:33:07.358Z,22.50
2023-05-19T12:35:38.868Z,22.50
2023-05-19T12:38:08.046Z,22.50
2023-05-19T12:40:40.161Z,22.50
2023-05-19T12:43:09.656Z,22.50
2023-05-19T12:45:38.680Z,22.50
2023-05-19T12:48:12.477Z,22.50
2023-05-19T12:50:42.257Z,22.50
2023-05-19T12:53:12.306Z,22.50
2023-05-19T12:55:42.901Z,22.40
2023-05-19T12:58:11.903Z,22.40
2023-05-19T13:00:44.783Z,22.40
2023-05-19T13:03:18.206Z,22.40
2023-05-19T13:05:49.574Z,22.40
2023-05-19T13:08:19.913Z,22.30
2023-05-19T13:10:49.014Z,22.30
2023-05-19T13:13:17.611Z,22.30
2023-05-19T13:15:48.630Z,22.30
2023-05-19T13:18:17.476Z,22.20
2023-05-19T13:20:49.873Z,22.20
2023-05-19T13:23:18.470Z,22.20
2023-05-19T13:25:46.563Z,22.20
2023-05-19T13:28:14.901Z,22.20
2023-05-19T13:30:44.700Z,22.20
2023-05-19T13:33:12.893Z,22.20
2023-05-19T13:35:41.152Z,22.20
2023-05-19T13:38:11.130Z,22.20
2023-05-19T13:40:40.012Z,22.20
2023-05-19T13:43:09.525Z,22.10
2023-05-19T13:45:37.705Z,22.20
2023-05-19T13:48:07.118Z,22.20
2023-05-19T13:50:35.556Z,22.10
2023-05-19T13:53:03.762Z,22.10
2023-05-19T13:55:33.611Z,22.10
2023-05-19T13:58:01.718Z,22.10
2023-05-19T14:00:30.718Z,22.10
2023-05-19T14:03:00.217Z,22.10
2023-05-19T14:05:28.924Z,22.10
2023-05-19T14:07:57.914Z,22.10
2023-05-19T14:10:26.258Z,22.10
2023-05-19T14:15:37.933Z,22.10
2023-05-19T14:18:07.107Z,22.10
2023-05-19T14:20:35.702Z,22.20
2023-05-19T14:23:04.114Z,22.10
2023-05-19T14:25:32.180Z,22.10
2023-05-19T14:28:02.065Z,22.10
2023-05-19T14:30:30.177Z,22.10
2023-05-19T14:32:58.404Z,22.10
2023-05-19T14:35:27.174Z,22.10
2023-05-19T14:37:55.206Z,22.10
2023-05-19T14:40:23.305Z,22.10
2023-05-19T14:42:51.382Z,22.10
2023-05-19T14:45:20.917Z,22.10
2023-05-19T14:47:49.047Z,22.10
2023-05-19T14:50:17.265Z,22.10
2023-05-19T14:52:45.327Z,22.10
2023-05-19T14:55:13.429Z,22.10
2023-05-19T14:57:41.480Z,22.10
2023-05-19T15:00:10.754Z,22.10
2023-05-19T15:02:40.168Z,22.10
2023-05-19T15:05:09.226Z,22.10
2023-05-19T15:07:37.306Z,22.10
2023-05-19T15:10:06.466Z,22.00
2023-05-19T15:12:34.510Z,22.00
2023-05-19T15:15:02.616Z,22.10
2023-05-19T15:17:30.909Z,22.00
2023-05-19T15:20:00.493Z,22.00
2023-05-19T15:22:28.569Z,22.00
2023-05-19T15:24:56.624Z,22.10
2023-05-19T15:27:24.851Z,22.00
2023-05-19T15:29:52.863Z,22.00
2023-05-19T15:32:21.094Z,22.00
2023-05-19T15:34:49.224Z,22.00
2023-05-19T15:37:18.653Z,22.00
2023-05-19T15:39:46.745Z,22.00
2023-05-19T15:42:14.859Z,22.00
2023-05-19T15:44:45.705Z,22.00
2023-05-19T15:47:13.728Z,22.00
2023-05-19T15:49:41.750Z,22.00
2023-05-19T15:52:09.760Z,22.00
2023-05-19T15:54:39.151Z,22.00
2023-05-19T15:57:07.373Z,22.00
2023-05-19T15:59:35.417Z,22.00
2023-05-19T16:02:03.726Z,22.00
2023-05-19T16:04:31.924Z,22.00
2023-05-19T16:06:59.965Z,22.00
2023-05-19T16:09:28.035Z,22.00
2023-05-19T16:11:57.375Z,22.00
2023-05-19T16:14:27.499Z,22.00
2023-05-19T16:16:55.609Z,22.00
2023-05-19T16:19:24.666Z,22.00
2023-05-19T16:21:52.795Z,22.00
2023-05-19T16:24:20.913Z,22.10
2023-05-19T16:26:49.387Z,22.00
2023-05-19T16:29:18.790Z,22.10
2023-05-19T16:31:46.868Z,22.00
2023-05-19T16:34:15.030Z,22.00
2023-05-19T16:36:43.154Z,22.10
2023-05-19T16:39:11.263Z,22.00
2023-05-19T16:41:39.333Z,22.10
2023-05-19T16:44:07.419Z,22.10
2023-05-19T16:46:36.983Z,22.10
2023-05-19T16:49:05.061Z,22.00
2023-05-19T16:51:33.267Z,22.10
2023-05-19T16:54:01.362Z,22.10
2023-05-19T16:56:29.397Z,22.00
2023-05-19T16:58:57.407Z,22.00
2023-05-19T17:01:25.562Z,22.00
2023-05-19T17:03:55.711Z,22.00
2023-05-19T17:06:23.888Z,22.00
2023-05-19T17:08:52.024Z,22.00
2023-05-19T17:11:20.055Z,22.00
2023-05-19T17:13:48.096Z,22.00
2023-05-19T17:16:17.192Z,22.00
2023-05-19T17:18:45.330Z,22.00
2023-05-19T17:21:14.741Z,21.90
2023-05-19T17:23:42.825Z,21.90
2023-05-19T17:26:10.835Z,21.90
2023-05-19T17:28:38.890Z,21.90
2023-05-19T17:31:11.977Z,21.90
2023-05-19T17:33:40.382Z,21.90
2023-05-19T17:36:10.425Z,21.90
2023-05-19T17:38:41.755Z,21.90
2023-05-19T17:41:10.747Z,21.90
2023-05-19T17:43:39.699Z,21.90
2023-05-19T17:46:08.073Z,21.90
2023-05-19T17:48:37.114Z,21.80
2023-05-19T17:51:07.018Z,21.80
2023-05-19T17:53:36.469Z,21.80
2023-05-19T17:56:09.534Z,21.80
2023-05-19T17:58:38.366Z,21.80
2023-05-19T18:01:07.283Z,21.80
2023-05-19T18:03:36.598Z,21.80
2023-05-19T18:06:06.163Z,21.80
2023-05-19T18:08:35.031Z,21.80
2023-05-19T18:11:05.461Z,21.70
2023-05-19T18:13:33.582Z,21.80
2023-05-19T18:16:01.679Z,21.80
2023-05-19T18:18:29.766Z,21.70
2023-05-19T18:20:57.872Z,21.80
2023-05-19T18:23:26.025Z,21.70
2023-05-19T18:25:54.120Z,21.70
2023-05-19T18:28:25.140Z,21.70
2023-05-19T18:31:00.745Z,21.70
2023-05-19T18:33:31.098Z,21.70
2023-05-19T18:35:59.731Z,21.70
2023-05-19T18:38:27.855Z,21.70
2023-05-19T18:40:56.776Z,21.70
2023-05-19T18:43:26.139Z,21.60
2023-05-19T18:45:54.263Z,21.60
2023-05-19T18:48:22.697Z,21.70
2023-05-19T18:50:50.809Z,21.60
2023-05-19T18:53:18.907Z,21.60
2023-05-19T18:55:46.949Z,21.60
2023-05-19T18:58:15.069Z,21.60
2023-05-19T19:00:44.557Z,21.60
2023-05-19T19:03:12.809Z,21.60
2023-05-19T19:05:41.198Z,21.60
2023-05-19T19:08:09.329Z,21.60
2023-05-19T19:10:40.383Z,21.60
2023-05-19T19:13:08.418Z,21.60
2023-05-19T19:15:37.596Z,21.60
2023-05-19T19:18:08.185Z,21.50
2023-05-19T19:20:36.633Z,21.50
2023-05-19T19:23:06.489Z,21.50
2023-05-19T19:25:34.593Z,21.50
2023-05-19T19:28:02.846Z,21.40
2023-05-19T19:30:31.176Z,21.50
2023-05-19T19:33:00.082Z,21.40
2023-05-19T19:35:29.594Z,21.40
2023-05-19T19:37:58.367Z,21.40
2023-05-19T19:40:26.493Z,21.40
2023-05-19T19:42:54.566Z,21.30
2023-05-19T19:45:22.836Z,21.30
2023-05-19T19:47:51.543Z,21.30
2023-05-19T19:50:19.827Z,21.30
2023-05-19T19:52:49.237Z,21.30
2023-05-19T19:55:17.444Z,21.30
2023-05-19T19:57:48.978Z,21.20
2023-05-19T20:00:18.117Z,21.20
2023-05-19T20:05:20.061Z,21.20
2023-05-19T20:07:49.476Z,21.10
2023-05-19T20:10:17.771Z,21.10
2023-05-19T20:12:47.100Z,21.10
2023-05-19T20:15:15.962Z,21.10
2023-05-19T20:17:44.157Z,21.10
2023-05-19T20:20:13.857Z,21.10
2023-05-19T20:22:44.200Z,21.10
2023-05-19T20:25:13.614Z,21.00
2023-05-19T20:27:41.734Z,21.00
2023-05-19T20:30:11.029Z,21.00
2023-05-19T20:32:39.863Z,21.00
2023-05-19T20:35:08.772Z,21.00
2023-05-19T20:37:36.894Z,21.00
2023-05-19T20:40:06.259Z,20.90
2023-05-19T20:42:35.838Z,20.90
2023-05-19T20:45:03.873Z,20.90
2023-05-19T20:47:31.916Z,20.90
2023-05-19T20:50:00.061Z,20.90
2023-05-19T20:52:28.134Z,20.90
2023-05-19T20:54:56.192Z,20.90
2023-05-19T20:57:24.249Z,20.90
2023-05-19T20:59:53.878Z,20.80
2023-05-19T21:02:21.930Z,20.80
2023-05-19T21:04:50.771Z,20.80
2023-05-19T21:07:18.934Z,20.80
2023-05-19T21:09:50.191Z,20.80
2023-05-19T21:12:20.524Z,20.80
2023-05-19T21:14:49.841Z,20.80
2023-05-19T21:17:20.970Z,20.80
2023-05-19T21:19:50.588Z,20.80
2023-05-19T21:22:18.830Z,20.80
2023-05-19T21:24:46.938Z,20.80
2023-05-19T21:27:14.994Z,20.80
2023-05-19T21:29:43.010Z,20.70
2023-05-19T21:32:11.117Z,20.70
2023-05-19T21:34:40.511Z,20.70
2023-05-19T21:37:08.598Z,20.70
2023-05-19T21:39:36.745Z,20.70
2023-05-19T21:42:06.292Z,20.70
2023-05-19T21:44:34.363Z,20.70
2023-05-19T21:47:02.432Z,20.70
2023-05-19T21:49:31.071Z,20.70
2023-05-19T21:52:00.568Z,20.60
2023-05-19T21:54:28.627Z,20.70
2023-05-19T21:56:56.748Z,20.60
2023-05-19T21:59:24.878Z,20.60
2023-05-19T22:01:53.345Z,20.60
2023-05-19T22:04:21.631Z,20.60
2023-05-19T22:06:49.655Z,20.60
2023-05-19T22:09:19.041Z,20.60
2023-05-19T22:11:47.121Z,20.60
2023-05-19T22:14:15.319Z,20.60
2023-05-19T22:16:43.512Z,20.60
2023-05-19T22:19:12.656Z,20.60
2023-05-19T22:21:41.035Z,20.60
2023-05-19T22:24:09.126Z,20.60
2023-05-19T22:26:42.390Z,20.50
2023-05-19T22:29:14.892Z,20.50
2023-05-19T22:31:42.975Z,20.50
2023-05-19T22:34:12.522Z,20.50
2023-05-19T22:36:41.226Z,20.50
2023-05-19T22:39:09.328Z,20.50
2023-05-19T22:41:38.820Z,20.50
2023-05-19T22:44:06.874Z,20.50
2023-05-19T22:46:35.845Z,20.50
2023-05-19T22:49:04.002Z,20.50
2023-05-19T22:51:33.414Z,20.50
2023-05-19T22:54:01.708Z,20.50
2023-05-19T22:56:29.756Z,20.40
2023-05-19T22:58:59.144Z,20.40
2023-05-19T23:01:27.348Z,20.40
2023-05-19T23:03:55.451Z,20.40
2023-05-19T23:06:23.646Z,20.40
2023-05-19T23:09:00.232Z,20.40
2023-05-19T23:11:28.264Z,20.40
2023-05-19T23:13:56.484Z,20.40
2023-05-19T23:16:26.092Z,20.40
2023-05-19T23:18:54.239Z,20.40
2023-05-19T23:21:22.312Z,20.40
2023-05-19T23:23:50.917Z,20.40
2023-05-19T23:26:19.043Z,20.40
2023-05-19T23:28:47.161Z,20.40
2023-05-19T23:31:15.611Z,20.40
2023-05-19T23:33:45.137Z,20.40
2023-05-19T23:36:13.239Z,20.40
2023-05-19T23:38:41.337Z,20.40
2023-05-19T23:41:09.556Z,20.40
2023-05-19T23:43:39.812Z,20.30
2023-05-19T23:46:07.978Z,20.30
2023-05-19T23:48:36.494Z,20.30
2023-05-19T23:51:08.043Z,20.30
2023-05-19T23:53:36.313Z,20.30
2023-05-19T23:56:04.410Z,20.30
2023-05-19T23:58:32.610Z,20.30
